sensor_id;sensor_type;location;lat;lon;timestamp;pressure;altitude;pressure_sealevel;temperature
14666;BMP280;7420;53.574;10.040;2023-07-29T00:01:57;54225.19;;;-136.87
14666;BMP280;7420;53.574;10.040;2023-07-29T00:04:23;54225.19;;;-136.87
14666;BMP280;7420;53.574;10.040;2023-07-29T00:06:48;54227.25;;;-136.87
14666;BMP280;7420;53.574;10.040;2023-07-29T00:09:13;54225.19;;;-136.87
14666;BMP280;7420;53.574;10.040;2023-07-29T00:11:39;54225.19;;;-136.87
14666;BMP280;7420;53.574;10.040;2023-07-29T00:14:04;54225.19;;;-136.87
14666;BMP280;7420;53.574;10.040;2023-07-29T00:16:29;54223.16;;;-136.87
14666;BMP280;7420;53.574;10.040;2023-07-29T00:18:55;54225.19;;;-136.87
14666;BMP280;7420;53.574;10.040;2023-07-29T00:21:20;54225.19;;;-136.87
14666;BMP280;7420;53.574;10.040;2023-07-29T00:23:45;54225.19;;;-136.87
14666;BMP280;7420;53.574;10.040;2023-07-29T00:26:11;54225.19;;;-136.87
14666;BMP280;7420;53.574;10.040;2023-07-29T00:28:36;54225.19;;;-136.87
14666;BMP280;7420;53.574;10.040;2023-07-29T00:31:02;54223.16;;;-136.87
14666;BMP280;7420;53.574;10.040;2023-07-29T00:33:27;54223.16;;;-136.87
14666;BMP280;7420;53.574;10.040;2023-07-29T00:35:53;54229.28;;;-136.87
14666;BMP280;7420;53.574;10.040;2023-07-29T00:38:18;54229.28;;;-136.87
14666;BMP280;7420;53.574;10.040;2023-07-29T00:40:43;54223.16;;;-136.87
14666;BMP280;7420;53.574;10.040;2023-07-29T00:43:09;54225.19;;;-136.87
14666;BMP280;7420;53.574;10.040;2023-07-29T00:45:34;54225.19;;;-136.87
14666;BMP280;7420;53.574;10.040;2023-07-29T00:48:01;54225.19;;;-136.87
14666;BMP280;7420;53.574;10.040;2023-07-29T00:50:28;54225.19;;;-136.87
14666;BMP280;7420;53.574;10.040;2023-07-29T00:52:54;54225.19;;;-136.87
14666;BMP280;7420;53.574;10.040;2023-07-29T00:55:20;54223.16;;;-136.87
14666;BMP280;7420;53.574;10.040;2023-07-29T00:57:46;54225.19;;;-136.87
14666;BMP280;7420;53.574;10.040;2023-07-29T01:00:14;54225.19;;;-136.87
14666;BMP280;7420;53.574;10.040;2023-07-29T01:02:42;54223.16;;;-136.87
14666;BMP280;7420;53.574;10.040;2023-07-29T01:05:07;54225.19;;;-136.87
14666;BMP280;7420;53.574;10.040;2023-07-29T01:07:40;54225.19;;;-136.87
14666;BMP280;7420;53.574;10.040;2023-07-29T01:10:30;54225.19;;;-136.87
14666;BMP280;7420;53.574;10.040;2023-07-29T01:13:19;54221.13;;;-136.87
14666;BMP280;7420;53.574;10.040;2023-07-29T01:16:26;54225.19;;;-136.87
14666;BMP280;7420;53.574;10.040;2023-07-29T01:18:55;54225.19;;;-136.87
14666;BMP280;7420;53.574;10.040;2023-07-29T01:21:21;54225.19;;;-136.87
14666;BMP280;7420;53.574;10.040;2023-07-29T01:23:46;54223.16;;;-136.87
14666;BMP280;7420;53.574;10.040;2023-07-29T01:26:12;54225.19;;;-136.87
14666;BMP280;7420;53.574;10.040;2023-07-29T01:28:38;54223.16;;;-136.87
14666;BMP280;7420;53.574;10.040;2023-07-29T01:31:12;54225.19;;;-136.87
14666;BMP280;7420;53.574;10.040;2023-07-29T01:36:46;54221.13;;;-136.87
14666;BMP280;7420;53.574;10.040;2023-07-29T01:39:14;54221.13;;;-136.87
14666;BMP280;7420;53.574;10.040;2023-07-29T01:41:43;54225.19;;;-136.87
14666;BMP280;7420;53.574;10.040;2023-07-29T01:44:10;54221.13;;;-136.87
14666;BMP280;7420;53.574;10.040;2023-07-29T01:46:36;54223.16;;;-136.87
14666;BMP280;7420;53.574;10.040;2023-07-29T01:49:02;54223.16;;;-136.87
14666;BMP280;7420;53.574;10.040;2023-07-29T01:51:27;54225.19;;;-136.87
14666;BMP280;7420;53.574;10.040;2023-07-29T01:53:53;54225.19;;;-136.87
14666;BMP280;7420;53.574;10.040;2023-07-29T01:56:20;54225.19;;;-136.87
14666;BMP280;7420;53.574;10.040;2023-07-29T01:58:45;54225.19;;;-136.87
14666;BMP280;7420;53.574;10.040;2023-07-29T02:01:11;54223.16;;;-136.87
14666;BMP280;7420;53.574;10.040;2023-07-29T02:03:36;54225.19;;;-136.87
14666;BMP280;7420;53.574;10.040;2023-07-29T02:06:01;54223.16;;;-136.87
14666;BMP280;7420;53.574;10.040;2023-07-29T02:08:27;54223.16;;;-136.87
14666;BMP280;7420;53.574;10.040;2023-07-29T02:10:52;54225.19;;;-136.87
14666;BMP280;7420;53.574;10.040;2023-07-29T02:13:17;54225.19;;;-136.87
14666;BMP280;7420;53.574;10.040;2023-07-29T02:15:43;54217.03;;;-136.87
14666;BMP280;7420;53.574;10.040;2023-07-29T02:18:09;54225.19;;;-136.87
14666;BMP280;7420;53.574;10.040;2023-07-29T02:20:34;54225.19;;;-136.87
14666;BMP280;7420;53.574;10.040;2023-07-29T02:22:59;54225.19;;;-136.87
14666;BMP280;7420;53.574;10.040;2023-07-29T02:25:25;54225.19;;;-136.87
14666;BMP280;7420;53.574;10.040;2023-07-29T02:27:50;54225.19;;;-136.87
14666;BMP280;7420;53.574;10.040;2023-07-29T02:30:16;54223.16;;;-136.87
14666;BMP280;7420;53.574;10.040;2023-07-29T02:32:41;54225.19;;;-136.87
14666;BMP280;7420;53.574;10.040;2023-07-29T02:35:06;54225.19;;;-136.87
14666;BMP280;7420;53.574;10.040;2023-07-29T02:37:32;54221.13;;;-136.87
14666;BMP280;7420;53.574;10.040;2023-07-29T02:39:57;54223.16;;;-136.87
14666;BMP280;7420;53.574;10.040;2023-07-29T02:42:23;54223.16;;;-136.87
14666;BMP280;7420;53.574;10.040;2023-07-29T02:44:48;54223.16;;;-136.87
14666;BMP280;7420;53.574;10.040;2023-07-29T02:47:13;54225.19;;;-136.87
14666;BMP280;7420;53.574;10.040;2023-07-29T02:49:39;54225.19;;;-136.87
14666;BMP280;7420;53.574;10.040;2023-07-29T02:52:04;54225.19;;;-136.87
14666;BMP280;7420;53.574;10.040;2023-07-29T02:54:30;54225.19;;;-136.87
14666;BMP280;7420;53.574;10.040;2023-07-29T02:56:55;54223.16;;;-136.87
14666;BMP280;7420;53.574;10.040;2023-07-29T02:59:20;54223.16;;;-136.87
14666;BMP280;7420;53.574;10.040;2023-07-29T03:01:46;54223.16;;;-136.87
14666;BMP280;7420;53.574;10.040;2023-07-29T03:04:11;54225.19;;;-136.87
14666;BMP280;7420;53.574;10.040;2023-07-29T03:06:38;54225.19;;;-136.87
14666;BMP280;7420;53.574;10.040;2023-07-29T03:09:03;54223.16;;;-136.87
14666;BMP280;7420;53.574;10.040;2023-07-29T03:11:30;54225.19;;;-136.87
14666;BMP280;7420;53.574;10.040;2023-07-29T03:13:56;54223.16;;;-136.87
14666;BMP280;7420;53.574;10.040;2023-07-29T03:16:22;54223.16;;;-136.87
14666;BMP280;7420;53.574;10.040;2023-07-29T03:21:33;54225.19;;;-136.87
14666;BMP280;7420;53.574;10.040;2023-07-29T03:23:59;54221.13;;;-136.87
14666;BMP280;7420;53.574;10.040;2023-07-29T03:26:24;54223.16;;;-136.87
14666;BMP280;7420;53.574;10.040;2023-07-29T03:28:50;54225.19;;;-136.87
14666;BMP280;7420;53.574;10.040;2023-07-29T03:31:15;54221.13;;;-136.87
14666;BMP280;7420;53.574;10.040;2023-07-29T03:33:41;54225.19;;;-136.87
14666;BMP280;7420;53.574;10.040;2023-07-29T03:36:06;54223.16;;;-136.87
14666;BMP280;7420;53.574;10.040;2023-07-29T03:38:31;54223.16;;;-136.87
14666;BMP280;7420;53.574;10.040;2023-07-29T03:41:00;54223.16;;;-136.87
14666;BMP280;7420;53.574;10.040;2023-07-29T03:43:27;54225.19;;;-136.87
14666;BMP280;7420;53.574;10.040;2023-07-29T03:45:54;54225.19;;;-136.87
14666;BMP280;7420;53.574;10.040;2023-07-29T03:48:20;54227.25;;;-136.87
14666;BMP280;7420;53.574;10.040;2023-07-29T03:50:45;54221.13;;;-136.87
14666;BMP280;7420;53.574;10.040;2023-07-29T03:53:11;54225.19;;;-136.87
14666;BMP280;7420;53.574;10.040;2023-07-29T03:55:36;54223.16;;;-136.87
14666;BMP280;7420;53.574;10.040;2023-07-29T03:58:01;54221.13;;;-136.87
14666;BMP280;7420;53.574;10.040;2023-07-29T04:00:27;54223.16;;;-136.87
14666;BMP280;7420;53.574;10.040;2023-07-29T04:02:52;54221.13;;;-136.87
14666;BMP280;7420;53.574;10.040;2023-07-29T04:05:18;54225.19;;;-136.87
14666;BMP280;7420;53.574;10.040;2023-07-29T04:07:44;54225.19;;;-136.87
14666;BMP280;7420;53.574;10.040;2023-07-29T04:10:10;54225.19;;;-136.87
14666;BMP280;7420;53.574;10.040;2023-07-29T04:12:35;54217.03;;;-136.87
14666;BMP280;7420;53.574;10.040;2023-07-29T04:15:00;54223.16;;;-136.87
14666;BMP280;7420;53.574;10.040;2023-07-29T04:17:26;54223.16;;;-136.87
14666;BMP280;7420;53.574;10.040;2023-07-29T04:19:51;54225.19;;;-136.87
14666;BMP280;7420;53.574;10.040;2023-07-29T04:22:16;54225.19;;;-136.87
14666;BMP280;7420;53.574;10.040;2023-07-29T04:24:42;54223.16;;;-136.87
14666;BMP280;7420;53.574;10.040;2023-07-29T04:27:08;54223.16;;;-136.87
14666;BMP280;7420;53.574;10.040;2023-07-29T04:29:33;54225.19;;;-136.87
14666;BMP280;7420;53.574;10.040;2023-07-29T04:32:01;54223.16;;;-136.87
14666;BMP280;7420;53.574;10.040;2023-07-29T04:34:26;54221.13;;;-136.87
14666;BMP280;7420;53.574;10.040;2023-07-29T04:36:52;54223.16;;;-136.87
14666;BMP280;7420;53.574;10.040;2023-07-29T04:39:17;54225.19;;;-136.87
14666;BMP280;7420;53.574;10.040;2023-07-29T04:41:43;54221.13;;;-136.87
14666;BMP280;7420;53.574;10.040;2023-07-29T04:44:08;54223.16;;;-136.87
14666;BMP280;7420;53.574;10.040;2023-07-29T04:46:35;54225.19;;;-136.87
14666;BMP280;7420;53.574;10.040;2023-07-29T04:49:01;54223.16;;;-136.87
14666;BMP280;7420;53.574;10.040;2023-07-29T04:51:27;54219.06;;;-136.87
14666;BMP280;7420;53.574;10.040;2023-07-29T04:53:53;54225.19;;;-136.87
14666;BMP280;7420;53.574;10.040;2023-07-29T04:56:18;54225.19;;;-136.87
14666;BMP280;7420;53.574;10.040;2023-07-29T04:58:43;54225.19;;;-136.87
14666;BMP280;7420;53.574;10.040;2023-07-29T05:01:09;54223.16;;;-136.87
14666;BMP280;7420;53.574;10.040;2023-07-29T05:03:34;54223.16;;;-136.87
14666;BMP280;7420;53.574;10.040;2023-07-29T05:06:00;54221.13;;;-136.87
14666;BMP280;7420;53.574;10.040;2023-07-29T05:08:28;54225.19;;;-136.87
14666;BMP280;7420;53.574;10.040;2023-07-29T05:10:54;54227.25;;;-136.87
14666;BMP280;7420;53.574;10.040;2023-07-29T05:13:21;54223.16;;;-136.87
14666;BMP280;7420;53.574;10.040;2023-07-29T05:15:48;54227.25;;;-136.87
14666;BMP280;7420;53.574;10.040;2023-07-29T05:18:14;54223.16;;;-136.87
14666;BMP280;7420;53.574;10.040;2023-07-29T05:20:40;54225.19;;;-136.87
14666;BMP280;7420;53.574;10.040;2023-07-29T05:23:05;54225.19;;;-136.87
14666;BMP280;7420;53.574;10.040;2023-07-29T05:25:31;54225.19;;;-136.87
14666;BMP280;7420;53.574;10.040;2023-07-29T05:27:56;54225.19;;;-136.87
14666;BMP280;7420;53.574;10.040;2023-07-29T05:30:22;54225.19;;;-136.87
14666;BMP280;7420;53.574;10.040;2023-07-29T05:32:48;54223.16;;;-136.87
14666;BMP280;7420;53.574;10.040;2023-07-29T05:35:13;54223.16;;;-136.87
14666;BMP280;7420;53.574;10.040;2023-07-29T05:37:39;54223.16;;;-136.87
14666;BMP280;7420;53.574;10.040;2023-07-29T05:40:06;54221.13;;;-136.87
14666;BMP280;7420;53.574;10.040;2023-07-29T05:42:32;54223.16;;;-136.87
14666;BMP280;7420;53.574;10.040;2023-07-29T05:44:57;54223.16;;;-136.87
14666;BMP280;7420;53.574;10.040;2023-07-29T05:50:08;54223.16;;;-136.87
14666;BMP280;7420;53.574;10.040;2023-07-29T05:52:34;54223.16;;;-136.87
14666;BMP280;7420;53.574;10.040;2023-07-29T05:54:59;54223.16;;;-136.87
14666;BMP280;7420;53.574;10.040;2023-07-29T05:57:25;54223.16;;;-136.87
14666;BMP280;7420;53.574;10.040;2023-07-29T05:59:50;54225.19;;;-136.87
14666;BMP280;7420;53.574;10.040;2023-07-29T06:02:16;54225.19;;;-136.87
14666;BMP280;7420;53.574;10.040;2023-07-29T06:04:41;54223.16;;;-136.87
14666;BMP280;7420;53.574;10.040;2023-07-29T06:07:07;54225.19;;;-136.87
14666;BMP280;7420;53.574;10.040;2023-07-29T06:09:32;54223.16;;;-136.87
14666;BMP280;7420;53.574;10.040;2023-07-29T06:11:58;54223.16;;;-136.87
14666;BMP280;7420;53.574;10.040;2023-07-29T06:14:26;54223.16;;;-136.87
14666;BMP280;7420;53.574;10.040;2023-07-29T06:16:51;54225.19;;;-136.87
14666;BMP280;7420;53.574;10.040;2023-07-29T06:19:18;54225.19;;;-136.87
14666;BMP280;7420;53.574;10.040;2023-07-29T06:21:43;54223.16;;;-136.87
14666;BMP280;7420;53.574;10.040;2023-07-29T06:24:09;54225.19;;;-136.87
14666;BMP280;7420;53.574;10.040;2023-07-29T06:26:34;54223.16;;;-136.87
14666;BMP280;7420;53.574;10.040;2023-07-29T06:28:59;54221.13;;;-136.87
14666;BMP280;7420;53.574;10.040;2023-07-29T06:31:25;54221.13;;;-136.87
14666;BMP280;7420;53.574;10.040;2023-07-29T06:33:50;54225.19;;;-136.87
14666;BMP280;7420;53.574;10.040;2023-07-29T06:36:16;54225.19;;;-136.87
14666;BMP280;7420;53.574;10.040;2023-07-29T06:38:41;54225.19;;;-136.87
14666;BMP280;7420;53.574;10.040;2023-07-29T06:41:07;54225.19;;;-136.87
14666;BMP280;7420;53.574;10.040;2023-07-29T06:43:32;54225.19;;;-136.87
14666;BMP280;7420;53.574;10.040;2023-07-29T06:45:57;54229.28;;;-136.87
14666;BMP280;7420;53.574;10.040;2023-07-29T06:48:23;54225.19;;;-136.87
14666;BMP280;7420;53.574;10.040;2023-07-29T06:50:49;54225.19;;;-136.87
14666;BMP280;7420;53.574;10.040;2023-07-29T06:53:15;54227.25;;;-136.87
14666;BMP280;7420;53.574;10.040;2023-07-29T06:55:40;54231.31;;;-136.87
14666;BMP280;7420;53.574;10.040;2023-07-29T06:58:06;54233.38;;;-136.87
14666;BMP280;7420;53.574;10.040;2023-07-29T07:00:32;54233.38;;;-136.87
14666;BMP280;7420;53.574;10.040;2023-07-29T07:02:57;54233.38;;;-136.87
14666;BMP280;7420;53.574;10.040;2023-07-29T07:05:22;54237.44;;;-136.87
14666;BMP280;7420;53.574;10.040;2023-07-29T07:07:48;54237.44;;;-136.87
14666;BMP280;7420;53.574;10.040;2023-07-29T07:10:14;54233.38;;;-136.87
14666;BMP280;7420;53.574;10.040;2023-07-29T07:12:39;54233.38;;;-136.87
14666;BMP280;7420;53.574;10.040;2023-07-29T07:15:05;54229.28;;;-136.87
14666;BMP280;7420;53.574;10.040;2023-07-29T07:17:31;54229.28;;;-136.87
14666;BMP280;7420;53.574;10.040;2023-07-29T07:19:56;54229.28;;;-136.87
14666;BMP280;7420;53.574;10.040;2023-07-29T07:22:21;54233.38;;;-136.87
14666;BMP280;7420;53.574;10.040;2023-07-29T07:24:47;54233.38;;;-136.87
14666;BMP280;7420;53.574;10.040;2023-07-29T07:27:12;54233.38;;;-136.87
14666;BMP280;7420;53.574;10.040;2023-07-29T07:29:37;54233.38;;;-136.87
14666;BMP280;7420;53.574;10.040;2023-07-29T07:32:03;54233.38;;;-136.87
14666;BMP280;7420;53.574;10.040;2023-07-29T07:34:28;54233.38;;;-136.87
14666;BMP280;7420;53.574;10.040;2023-07-29T07:36:54;54235.41;;;-136.87
14666;BMP280;7420;53.574;10.040;2023-07-29T07:39:19;54233.38;;;-136.87
14666;BMP280;7420;53.574;10.040;2023-07-29T07:41:45;54237.44;;;-136.87
14666;BMP280;7420;53.574;10.040;2023-07-29T07:44:10;54235.41;;;-136.87
14666;BMP280;7420;53.574;10.040;2023-07-29T07:46:37;54235.41;;;-136.87
14666;BMP280;7420;53.574;10.040;2023-07-29T07:49:03;54231.31;;;-136.87
14666;BMP280;7420;53.574;10.040;2023-07-29T07:51:28;54233.38;;;-136.87
14666;BMP280;7420;53.574;10.040;2023-07-29T07:53:53;54229.28;;;-136.87
14666;BMP280;7420;53.574;10.040;2023-07-29T07:56:22;54233.38;;;-136.87
14666;BMP280;7420;53.574;10.040;2023-07-29T07:58:47;54239.50;;;-136.87
14666;BMP280;7420;53.574;10.040;2023-07-29T08:01:12;54233.38;;;-136.87
14666;BMP280;7420;53.574;10.040;2023-07-29T08:03:38;54233.38;;;-136.87
14666;BMP280;7420;53.574;10.040;2023-07-29T08:06:04;54235.41;;;-136.87
14666;BMP280;7420;53.574;10.040;2023-07-29T08:08:29;54233.38;;;-136.87
14666;BMP280;7420;53.574;10.040;2023-07-29T08:10:56;54229.28;;;-136.87
14666;BMP280;7420;53.574;10.040;2023-07-29T08:13:22;54229.28;;;-136.87
14666;BMP280;7420;53.574;10.040;2023-07-29T08:15:49;54227.25;;;-136.87
14666;BMP280;7420;53.574;10.040;2023-07-29T08:18:15;54231.31;;;-136.87
14666;BMP280;7420;53.574;10.040;2023-07-29T08:20:41;54231.31;;;-136.87
14666;BMP280;7420;53.574;10.040;2023-07-29T08:23:06;54233.38;;;-136.87
14666;BMP280;7420;53.574;10.040;2023-07-29T08:25:32;54233.38;;;-136.87
14666;BMP280;7420;53.574;10.040;2023-07-29T08:27:57;54231.31;;;-136.87
14666;BMP280;7420;53.574;10.040;2023-07-29T08:30:22;54233.38;;;-136.87
14666;BMP280;7420;53.574;10.040;2023-07-29T08:32:48;54227.25;;;-136.87
14666;BMP280;7420;53.574;10.040;2023-07-29T08:35:13;54235.41;;;-136.87
14666;BMP280;7420;53.574;10.040;2023-07-29T08:37:39;54229.28;;;-136.87
14666;BMP280;7420;53.574;10.040;2023-07-29T08:40:05;54227.25;;;-136.87
14666;BMP280;7420;53.574;10.040;2023-07-29T08:42:31;54225.19;;;-136.87
14666;BMP280;7420;53.574;10.040;2023-07-29T08:45:01;54229.28;;;-136.87
14666;BMP280;7420;53.574;10.040;2023-07-29T08:47:30;54227.25;;;-136.87
14666;BMP280;7420;53.574;10.040;2023-07-29T08:49:55;54231.31;;;-136.87
14666;BMP280;7420;53.574;10.040;2023-07-29T08:52:22;54233.38;;;-136.87
14666;BMP280;7420;53.574;10.040;2023-07-29T08:54:48;54235.41;;;-136.87
14666;BMP280;7420;53.574;10.040;2023-07-29T08:57:14;54233.38;;;-136.87
14666;BMP280;7420;53.574;10.040;2023-07-29T08:59:40;54233.38;;;-136.87
14666;BMP280;7420;53.574;10.040;2023-07-29T09:02:06;54231.31;;;-136.87
14666;BMP280;7420;53.574;10.040;2023-07-29T09:04:31;54231.31;;;-136.87
14666;BMP280;7420;53.574;10.040;2023-07-29T09:06:58;54233.38;;;-136.87
14666;BMP280;7420;53.574;10.040;2023-07-29T09:09:25;54229.28;;;-136.87
14666;BMP280;7420;53.574;10.040;2023-07-29T09:11:50;54225.19;;;-136.87
14666;BMP280;7420;53.574;10.040;2023-07-29T09:14:16;54227.25;;;-136.87
14666;BMP280;7420;53.574;10.040;2023-07-29T09:16:41;54231.31;;;-136.87
14666;BMP280;7420;53.574;10.040;2023-07-29T09:19:07;54231.31;;;-136.87
14666;BMP280;7420;53.574;10.040;2023-07-29T09:21:32;54231.31;;;-136.87
14666;BMP280;7420;53.574;10.040;2023-07-29T09:24:02;54233.38;;;-136.87
14666;BMP280;7420;53.574;10.040;2023-07-29T09:26:28;54233.38;;;-136.87
14666;BMP280;7420;53.574;10.040;2023-07-29T09:28:57;54233.38;;;-136.87
14666;BMP280;7420;53.574;10.040;2023-07-29T09:31:25;54237.44;;;-136.87
14666;BMP280;7420;53.574;10.040;2023-07-29T09:33:58;54233.38;;;-136.87
14666;BMP280;7420;53.574;10.040;2023-07-29T09:36:24;54235.41;;;-136.87
14666;BMP280;7420;53.574;10.040;2023-07-29T09:38:56;54237.44;;;-136.87
14666;BMP280;7420;53.574;10.040;2023-07-29T09:41:23;54237.44;;;-136.87
14666;BMP280;7420;53.574;10.040;2023-07-29T09:43:55;54241.53;;;-136.87
14666;BMP280;7420;53.574;10.040;2023-07-29T09:46:23;54241.53;;;-136.87
14666;BMP280;7420;53.574;10.040;2023-07-29T09:51:38;54235.41;;;-136.87
14666;BMP280;7420;53.574;10.040;2023-07-29T09:54:07;54237.44;;;-136.87
14666;BMP280;7420;53.574;10.040;2023-07-29T09:56:32;54239.50;;;-136.87
14666;BMP280;7420;53.574;10.040;2023-07-29T09:58:58;54239.50;;;-136.87
14666;BMP280;7420;53.574;10.040;2023-07-29T10:01:24;54237.44;;;-136.87
14666;BMP280;7420;53.574;10.040;2023-07-29T10:03:50;54237.44;;;-136.87
14666;BMP280;7420;53.574;10.040;2023-07-29T10:06:17;54237.44;;;-136.87
14666;BMP280;7420;53.574;10.040;2023-07-29T10:08:43;54241.53;;;-136.87
14666;BMP280;7420;53.574;10.040;2023-07-29T10:11:10;54239.50;;;-136.87
14666;BMP280;7420;53.574;10.040;2023-07-29T10:13:37;54237.44;;;-136.87
14666;BMP280;7420;53.574;10.040;2023-07-29T10:16:03;54241.53;;;-136.87
14666;BMP280;7420;53.574;10.040;2023-07-29T10:18:32;54237.44;;;-136.87
14666;BMP280;7420;53.574;10.040;2023-07-29T10:20:59;54237.44;;;-136.87
14666;BMP280;7420;53.574;10.040;2023-07-29T10:23:26;54237.44;;;-136.87
14666;BMP280;7420;53.574;10.040;2023-07-29T10:26:01;54241.53;;;-136.87
14666;BMP280;7420;53.574;10.040;2023-07-29T10:28:29;54245.63;;;-136.87
14666;BMP280;7420;53.574;10.040;2023-07-29T10:30:56;54241.53;;;-136.87
14666;BMP280;7420;53.574;10.040;2023-07-29T10:33:22;54239.50;;;-136.87
14666;BMP280;7420;53.574;10.040;2023-07-29T10:35:47;54239.50;;;-136.87
14666;BMP280;7420;53.574;10.040;2023-07-29T10:38:13;54239.50;;;-136.87
14666;BMP280;7420;53.574;10.040;2023-07-29T10:40:51;54239.50;;;-136.87
14666;BMP280;7420;53.574;10.040;2023-07-29T10:45:55;54237.44;;;-136.87
14666;BMP280;7420;53.574;10.040;2023-07-29T10:53:56;54241.53;;;-136.87
14666;BMP280;7420;53.574;10.040;2023-07-29T10:56:33;54241.53;;;-136.87
14666;BMP280;7420;53.574;10.040;2023-07-29T10:59:03;54241.53;;;-136.87
14666;BMP280;7420;53.574;10.040;2023-07-29T11:01:57;54241.53;;;-136.87
14666;BMP280;7420;53.574;10.040;2023-07-29T11:04:31;54243.59;;;-136.87
14666;BMP280;7420;53.574;10.040;2023-07-29T11:09:57;54243.59;;;-136.87
14666;BMP280;7420;53.574;10.040;2023-07-29T11:12:44;54241.53;;;-136.87
14666;BMP280;7420;53.574;10.040;2023-07-29T11:17:38;54237.44;;;-136.87
14666;BMP280;7420;53.574;10.040;2023-07-29T11:20:05;54245.63;;;-136.87
14666;BMP280;7420;53.574;10.040;2023-07-29T11:22:30;54241.53;;;-136.87
14666;BMP280;7420;53.574;10.040;2023-07-29T11:24:56;54241.53;;;-136.87
14666;BMP280;7420;53.574;10.040;2023-07-29T11:27:21;54239.50;;;-136.87
14666;BMP280;7420;53.574;10.040;2023-07-29T11:29:47;54241.53;;;-136.87
14666;BMP280;7420;53.574;10.040;2023-07-29T11:32:13;54241.53;;;-136.87
14666;BMP280;7420;53.574;10.040;2023-07-29T11:34:41;54239.50;;;-136.87
14666;BMP280;7420;53.574;10.040;2023-07-29T11:37:06;54241.53;;;-136.87
14666;BMP280;7420;53.574;10.040;2023-07-29T11:39:33;54243.59;;;-136.87
14666;BMP280;7420;53.574;10.040;2023-07-29T11:41:58;54241.53;;;-136.87
14666;BMP280;7420;53.574;10.040;2023-07-29T11:44:24;54237.44;;;-136.87
14666;BMP280;7420;53.574;10.040;2023-07-29T11:46:50;54241.53;;;-136.87
14666;BMP280;7420;53.574;10.040;2023-07-29T11:49:15;54241.53;;;-136.87
14666;BMP280;7420;53.574;10.040;2023-07-29T11:51:41;54241.53;;;-136.87
14666;BMP280;7420;53.574;10.040;2023-07-29T11:54:07;54243.59;;;-136.87
14666;BMP280;7420;53.574;10.040;2023-07-29T11:56:33;54241.53;;;-136.87
14666;BMP280;7420;53.574;10.040;2023-07-29T11:58:59;54239.50;;;-136.87
14666;BMP280;7420;53.574;10.040;2023-07-29T12:01:25;54241.53;;;-136.87
14666;BMP280;7420;53.574;10.040;2023-07-29T12:03:51;54237.44;;;-136.87
14666;BMP280;7420;53.574;10.040;2023-07-29T12:06:16;54239.50;;;-136.87
14666;BMP280;7420;53.574;10.040;2023-07-29T12:08:42;54235.41;;;-136.87
14666;BMP280;7420;53.574;10.040;2023-07-29T12:11:09;54239.50;;;-136.87
14666;BMP280;7420;53.574;10.040;2023-07-29T12:13:36;54243.59;;;-136.87
14666;BMP280;7420;53.574;10.040;2023-07-29T12:16:02;54237.44;;;-136.87
14666;BMP280;7420;53.574;10.040;2023-07-29T12:18:32;54235.41;;;-136.87
14666;BMP280;7420;53.574;10.040;2023-07-29T12:20:57;54237.44;;;-136.87
14666;BMP280;7420;53.574;10.040;2023-07-29T12:23:26;54241.53;;;-136.87
14666;BMP280;7420;53.574;10.040;2023-07-29T12:25:57;54233.38;;;-136.87
14666;BMP280;7420;53.574;10.040;2023-07-29T12:28:23;54237.44;;;-136.87
14666;BMP280;7420;53.574;10.040;2023-07-29T12:30:53;54235.41;;;-136.87
14666;BMP280;7420;53.574;10.040;2023-07-29T12:33:35;54237.44;;;-136.87
14666;BMP280;7420;53.574;10.040;2023-07-29T12:36:02;54233.38;;;-136.87
14666;BMP280;7420;53.574;10.040;2023-07-29T12:38:28;54233.38;;;-136.87
14666;BMP280;7420;53.574;10.040;2023-07-29T12:40:54;54231.31;;;-136.87
14666;BMP280;7420;53.574;10.040;2023-07-29T12:43:20;54235.41;;;-136.87
14666;BMP280;7420;53.574;10.040;2023-07-29T12:45:45;54235.41;;;-136.87
14666;BMP280;7420;53.574;10.040;2023-07-29T12:48:11;54231.31;;;-136.87
14666;BMP280;7420;53.574;10.040;2023-07-29T12:50:37;54235.41;;;-136.87
14666;BMP280;7420;53.574;10.040;2023-07-29T12:53:07;54229.28;;;-136.87
14666;BMP280;7420;53.574;10.040;2023-07-29T12:55:33;54233.38;;;-136.87
14666;BMP280;7420;53.574;10.040;2023-07-29T12:57:58;54227.25;;;-136.87
14666;BMP280;7420;53.574;10.040;2023-07-29T13:00:24;54229.28;;;-136.87
14666;BMP280;7420;53.574;10.040;2023-07-29T13:02:49;54237.44;;;-136.87
14666;BMP280;7420;53.574;10.040;2023-07-29T13:05:15;54233.38;;;-136.87
14666;BMP280;7420;53.574;10.040;2023-07-29T13:07:41;54235.41;;;-136.87
14666;BMP280;7420;53.574;10.040;2023-07-29T13:10:08;54229.28;;;-136.87
14666;BMP280;7420;53.574;10.040;2023-07-29T13:12:33;54231.31;;;-136.87
14666;BMP280;7420;53.574;10.040;2023-07-29T13:14:59;54231.31;;;-136.87
14666;BMP280;7420;53.574;10.040;2023-07-29T13:17:24;54237.44;;;-136.87
14666;BMP280;7420;53.574;10.040;2023-07-29T13:19:50;54229.28;;;-136.87
14666;BMP280;7420;53.574;10.040;2023-07-29T13:22:15;54225.19;;;-136.87
14666;BMP280;7420;53.574;10.040;2023-07-29T13:24:41;54233.38;;;-136.87
14666;BMP280;7420;53.574;10.040;2023-07-29T13:27:06;54233.38;;;-136.87
14666;BMP280;7420;53.574;10.040;2023-07-29T13:29:32;54235.41;;;-136.87
14666;BMP280;7420;53.574;10.040;2023-07-29T13:31:57;54231.31;;;-136.87
14666;BMP280;7420;53.574;10.040;2023-07-29T13:34:22;54237.44;;;-136.87
14666;BMP280;7420;53.574;10.040;2023-07-29T13:36:48;54231.31;;;-136.87
14666;BMP280;7420;53.574;10.040;2023-07-29T13:39:13;54237.44;;;-136.87
14666;BMP280;7420;53.574;10.040;2023-07-29T13:41:38;54233.38;;;-136.87
14666;BMP280;7420;53.574;10.040;2023-07-29T13:44:04;54239.50;;;-136.87
14666;BMP280;7420;53.574;10.040;2023-07-29T13:46:29;54233.38;;;-136.87
14666;BMP280;7420;53.574;10.040;2023-07-29T13:48:55;54237.44;;;-136.87
14666;BMP280;7420;53.574;10.040;2023-07-29T13:51:20;54233.38;;;-136.87
14666;BMP280;7420;53.574;10.040;2023-07-29T13:53:45;54231.31;;;-136.87
14666;BMP280;7420;53.574;10.040;2023-07-29T13:56:11;54223.16;;;-136.87
14666;BMP280;7420;53.574;10.040;2023-07-29T13:58:36;54229.28;;;-136.87
14666;BMP280;7420;53.574;10.040;2023-07-29T14:01:01;54221.13;;;-136.87
14666;BMP280;7420;53.574;10.040;2023-07-29T14:03:27;54225.19;;;-136.87
14666;BMP280;7420;53.574;10.040;2023-07-29T14:05:52;54221.13;;;-136.87